Time;durP1;ratioP1;P1;durP2;ratioP2;P2;SDS_P1;SDS_P2;PMS_P1;PMS_P2;Temp;Humidity;BMP_temperature;BMP_pressure;BME280_temperature;BME280_humidity;BME280_pressure;Samples;Min_cycle;Max_cycle;Signal;HPM_P1;HPM_P2
2023/01/28 00:00:05;;;;;;;3.40;2.30;;;2.90;99.90;;;;;;5030632;28;20048;-82
2023/01/28 00:02:35;;;;;;;2.92;1.70;;;2.90;99.90;;;;;;5015516;28;20042;-82
2023/01/28 00:05:01;;;;;;;5.43;2.28;;;2.90;99.90;;;;;;5015317;28;20068;-82
2023/01/28 00:07:26;;;;;;;4.07;1.90;;;2.90;99.90;;;;;;5027875;28;20082;-81
2023/01/28 00:09:52;;;;;;;3.63;2.22;;;2.80;99.90;;;;;;5012729;28;20088;-82
2023/01/28 00:12:18;;;;;;;3.33;2.17;;;2.90;99.90;;;;;;5011627;28;20042;-82
2023/01/28 00:14:45;;;;;;;4.47;2.30;;;2.90;99.90;;;;;;5025176;28;20038;-82
2023/01/28 00:17:11;;;;;;;5.57;2.25;;;2.90;99.90;;;;;;5030824;28;20045;-81
2023/01/28 00:19:37;;;;;;;5.43;2.33;;;2.90;99.90;;;;;;5015154;28;20120;-82
2023/01/28 00:22:03;;;;;;;3.65;2.15;;;2.90;99.90;;;;;;5047771;28;20518;-82
2023/01/28 00:24:29;;;;;;;4.40;2.13;;;2.80;99.90;;;;;;5029634;28;20047;-82
2023/01/28 00:26:54;;;;;;;4.18;2.28;;;2.80;99.90;;;;;;5014353;28;20042;-82
2023/01/28 00:29:20;;;;;;;4.30;2.20;;;2.80;99.90;;;;;;5062446;28;20052;-82
2023/01/28 00:31:46;;;;;;;4.43;2.10;;;2.80;99.90;;;;;;5030486;28;20472;-82
2023/01/28 00:34:11;;;;;;;2.42;1.60;;;2.80;99.90;;;;;;5070691;28;20038;-82
2023/01/28 00:36:38;;;;;;;3.53;2.50;;;2.80;99.90;;;;;;5027732;28;20483;-82
2023/01/28 00:39:05;;;;;;;3.70;2.00;;;2.80;99.90;;;;;;5046383;28;20124;-82
2023/01/28 00:41:31;;;;;;;3.63;2.20;;;2.70;99.90;;;;;;5018188;28;20036;-82
2023/01/28 00:43:57;;;;;;;3.88;2.30;;;2.70;99.90;;;;;;5021232;28;20492;-82
2023/01/28 00:46:26;;;;;;;3.60;2.17;;;2.80;99.90;;;;;;5062963;28;20495;-82
2023/01/28 00:48:52;;;;;;;4.38;2.33;;;2.70;99.90;;;;;;5031609;28;20372;-82
2023/01/28 00:51:19;;;;;;;2.95;1.85;;;2.80;99.90;;;;;;5015848;28;20099;-82
2023/01/28 00:53:45;;;;;;;3.58;2.22;;;2.80;99.90;;;;;;5064803;28;20037;-82
2023/01/28 00:56:16;;;;;;;3.03;2.05;;;2.80;99.90;;;;;;5013870;28;20050;-82
2023/01/28 00:58:42;;;;;;;3.67;2.33;;;2.80;99.90;;;;;;5013493;28;20399;-82
2023/01/28 01:01:17;;;;;;;4.68;2.45;;;2.80;99.90;;;;;;5011899;28;20037;-82
2023/01/28 01:03:43;;;;;;;2.95;1.67;;;2.70;99.90;;;;;;5014509;28;20034;-82
2023/01/28 01:06:10;;;;;;;3.33;1.98;;;2.80;99.90;;;;;;5013760;28;20060;-82
2023/01/28 01:08:38;;;;;;;2.80;1.73;;;2.80;99.90;;;;;;5018937;28;20053;-82
2023/01/28 01:11:06;;;;;;;4.63;2.25;;;2.80;99.90;;;;;;5064056;28;20486;-82
2023/01/28 01:13:33;;;;;;;5.15;2.70;;;2.80;99.90;;;;;;5064370;28;20030;-82
2023/01/28 01:16:15;;;;;;;3.90;2.58;;;2.70;99.90;;;;;;5063439;28;20458;-82
2023/01/28 01:18:41;;;;;;;4.70;2.83;;;2.70;99.90;;;;;;5030715;28;20084;-82
2023/01/28 01:21:12;;;;;;;3.72;2.50;;;2.70;99.90;;;;;;5012123;28;20069;-82
2023/01/28 01:23:39;;;;;;;3.22;1.88;;;2.70;99.90;;;;;;5014051;28;20049;-82
2023/01/28 01:26:05;;;;;;;4.65;2.67;;;2.70;99.90;;;;;;5056385;28;20447;-82
2023/01/28 01:28:32;;;;;;;3.17;1.67;;;2.60;99.90;;;;;;5021859;28;20180;-82
2023/01/28 01:31:18;;;;;;;3.97;2.63;;;2.70;99.90;;;;;;5030096;28;20349;-82
2023/01/28 01:33:44;;;;;;;;;;;2.70;99.90;;;;;;5013481;28;20045;-82
2023/01/28 01:36:12;;;;;;;3.33;1.95;;;2.70;99.90;;;;;;5047125;28;20000;-82
2023/01/28 01:38:37;;;;;;;3.22;2.08;;;2.70;99.90;;;;;;5009119;28;20045;-82
2023/01/28 01:41:04;;;;;;;2.95;1.70;;;2.70;99.90;;;;;;4999748;28;20045;-82
2023/01/28 01:43:52;;;;;;;3.83;2.17;;;2.70;99.90;;;;;;5013690;28;20441;-82
2023/01/28 01:46:25;;;;;;;3.90;1.90;;;2.70;99.90;;;;;;5063310;28;20044;-82
2023/01/28 01:48:52;;;;;;;3.72;2.10;;;2.70;99.90;;;;;;5012390;28;20137;-82
2023/01/28 01:51:24;;;;;;;3.10;1.98;;;2.60;99.90;;;;;;5010491;28;20514;-82
2023/01/28 01:53:53;;;;;;;5.07;2.55;;;2.60;99.90;;;;;;5013787;28;20044;-82
2023/01/28 01:56:22;;;;;;;4.00;2.35;;;2.60;99.90;;;;;;5012851;28;20099;-82
2023/01/28 01:58:50;;;;;;;3.35;1.88;;;2.60;99.90;;;;;;5011404;28;20072;-82
2023/01/28 02:01:19;;;;;;;3.72;1.98;;;2.70;99.90;;;;;;5008714;28;20048;-82
2023/01/28 02:03:55;;;;;;;3.60;2.25;;;2.70;99.90;;;;;;5025745;28;20041;-82
2023/01/28 02:06:21;;;;;;;3.42;1.83;;;2.70;99.90;;;;;;5045047;28;20232;-82
2023/01/28 02:08:47;;;;;;;3.90;2.47;;;2.70;99.90;;;;;;5012193;28;20041;-82
2023/01/28 02:11:14;;;;;;;5.53;3.15;;;2.70;99.90;;;;;;5027173;28;20091;-82
2023/01/28 02:13:45;;;;;;;4.25;2.53;;;2.70;99.90;;;;;;5011682;28;20073;-82
2023/01/28 02:16:12;;;;;;;4.15;2.35;;;2.70;99.90;;;;;;5011493;28;20099;-82
2023/01/28 02:18:37;;;;;;;3.50;2.08;;;2.70;99.90;;;;;;5045927;28;20053;-82
2023/01/28 02:21:18;;;;;;;4.00;2.30;;;2.70;99.90;;;;;;5026869;28;20121;-82
2023/01/28 02:24:08;;;;;;;5.47;2.97;;;2.70;99.90;;;;;;5029519;28;20046;-82
2023/01/28 02:26:58;;;;;;;3.28;2.25;;;2.70;99.90;;;;;;5021943;28;20522;-82
2023/01/28 02:29:30;;;;;;;3.22;2.13;;;2.70;99.90;;;;;;5013036;28;20038;-82
2023/01/28 02:32:36;;;;;;;4.10;2.30;;;2.70;99.90;;;;;;5002167;28;20384;-82
2023/01/28 02:35:23;;;;;;;4.20;2.58;;;2.70;99.90;;;;;;5009888;28;20124;-81
2023/01/28 02:38:15;;;;;;;5.00;2.72;;;2.70;99.90;;;;;;5009318;28;20049;-82
2023/01/28 02:43:37;;;;;;;4.18;2.65;;;2.70;99.90;;;;;;5028888;28;20037;-82
2023/01/28 02:49:01;;;;;;;3.55;2.00;;;2.70;99.90;;;;;;5028660;28;20137;-82
2023/01/28 02:51:34;;;;;;;3.28;1.83;;;2.70;99.90;;;;;;5054620;28;20061;-82
2023/01/28 02:54:13;;;;;;;3.35;2.30;;;2.80;99.90;;;;;;5011161;28;20233;-82
2023/01/28 02:57:05;;;;;;;4.07;2.33;;;2.80;99.90;;;;;;5059806;28;20052;-82
2023/01/28 02:59:40;;;;;;;3.88;2.35;;;2.80;99.90;;;;;;5027935;28;20464;-82
2023/01/28 03:02:19;;;;;;;5.45;2.80;;;2.80;99.90;;;;;;5001912;28;20372;-82
2023/01/28 03:05:08;;;;;;;4.47;2.50;;;2.80;99.90;;;;;;5011369;28;20168;-82
2023/01/28 03:07:36;;;;;;;2.83;2.03;;;2.80;99.90;;;;;;5060980;28;20068;-82
2023/01/28 03:10:06;;;;;;;4.43;2.33;;;2.80;99.90;;;;;;5010965;28;20033;-82
2023/01/28 03:38:16;;;;;;;4.05;1.98;;;2.80;99.90;;;;;;5028667;28;20076;-81
2023/01/28 03:40:56;;;;;;;3.95;2.05;;;2.70;99.90;;;;;;5023883;28;20045;-81
2023/01/28 03:43:23;;;;;;;4.45;1.95;;;2.80;99.90;;;;;;5010371;28;20503;-81
2023/01/28 03:45:50;;;;;;;5.47;2.92;;;2.70;99.90;;;;;;5010406;28;20323;-81
2023/01/28 03:48:18;;;;;;;4.72;2.22;;;2.70;99.90;;;;;;5027704;28;20456;-81
2023/01/28 03:50:43;;;;;;;4.32;2.47;;;2.70;99.90;;;;;;5024945;28;20030;-82
2023/01/28 03:53:12;;;;;;;3.35;2.03;;;2.70;99.90;;;;;;5059860;28;20376;-81
2023/01/28 03:55:38;;;;;;;4.63;2.42;;;2.70;99.90;;;;;;5027025;28;20034;-82
2023/01/28 03:58:07;;;;;;;4.65;1.98;;;2.80;99.90;;;;;;5060900;28;20041;-82
2023/01/28 04:00:36;;;;;;;3.20;1.83;;;2.70;99.90;;;;;;5042851;28;20403;-81
2023/01/28 04:03:03;;;;;;;4.15;2.30;;;2.70;99.90;;;;;;5011900;28;20187;-82
2023/01/28 04:05:28;;;;;;;5.90;1.98;;;2.70;99.90;;;;;;5026704;28;20362;-82
2023/01/28 04:07:55;;;;;;;3.83;1.92;;;2.70;99.90;;;;;;5025706;28;20727;-82
2023/01/28 04:10:20;;;;;;;3.42;1.70;;;2.70;99.90;;;;;;5007414;28;20235;-82
2023/01/28 04:12:48;;;;;;;3.97;2.20;;;2.80;99.90;;;;;;5008995;28;20125;-82
2023/01/28 04:15:15;;;;;;;3.92;2.35;;;2.70;99.90;;;;;;4993548;28;20038;-82
2023/01/28 04:17:47;;;;;;;3.25;2.33;;;2.70;99.90;;;;;;5010476;28;20037;-82
2023/01/28 04:20:14;;;;;;;4.03;2.03;;;2.80;99.90;;;;;;5009498;28;20088;-82
2023/01/28 04:22:40;;;;;;;3.58;2.30;;;2.70;99.90;;;;;;5010991;28;20037;-82
2023/01/28 04:25:06;;;;;;;4.72;2.10;;;2.70;99.90;;;;;;5025398;28;20029;-82
2023/01/28 04:27:31;;;;;;;3.13;1.65;;;2.70;99.90;;;;;;5011518;28;20033;-82
2023/01/28 04:29:57;;;;;;;3.63;1.83;;;2.70;99.90;;;;;;5009304;28;20033;-82
2023/01/28 04:32:23;;;;;;;4.10;2.05;;;2.70;99.90;;;;;;5027275;28;20491;-82
2023/01/28 04:34:48;;;;;;;2.38;1.30;;;2.70;99.90;;;;;;5013314;28;20036;-82
2023/01/28 04:37:14;;;;;;;3.58;1.70;;;2.70;99.90;;;;;;5028912;28;20108;-82
2023/01/28 04:39:40;;;;;;;4.25;2.00;;;2.70;99.90;;;;;;5025497;28;20707;-82
2023/01/28 04:42:05;;;;;;;3.30;1.70;;;2.70;99.90;;;;;;5063526;28;20042;-82
2023/01/28 04:44:31;;;;;;;2.90;1.38;;;2.70;99.90;;;;;;5046726;28;20475;-82
2023/01/28 04:46:56;;;;;;;3.50;1.90;;;2.70;99.90;;;;;;5028110;28;20065;-82
2023/01/28 04:49:22;;;;;;;3.22;2.00;;;2.60;99.90;;;;;;5013571;28;20038;-82
2023/01/28 04:51:48;;;;;;;6.30;2.00;;;2.70;99.90;;;;;;5031243;28;20033;-82
2023/01/28 04:54:13;;;;;;;2.72;1.83;;;2.70;99.90;;;;;;5009420;28;20690;-82
2023/01/28 04:56:39;;;;;;;2.95;1.65;;;2.70;99.90;;;;;;5024365;28;20037;-82
2023/01/28 04:59:04;;;;;;;3.95;2.22;;;2.70;99.90;;;;;;5031156;28;20041;-82
2023/01/28 05:01:30;;;;;;;4.93;2.40;;;2.70;99.90;;;;;;5028875;28;20091;-82
2023/01/28 05:03:56;;;;;;;3.70;2.20;;;2.70;99.90;;;;;;5045156;28;20080;-82
2023/01/28 05:06:21;;;;;;;3.83;1.77;;;2.70;99.90;;;;;;5028395;28;20080;-82
2023/01/28 05:08:47;;;;;;;3.25;1.73;;;2.70;99.90;;;;;;5063161;28;20124;-82
2023/01/28 05:11:13;;;;;;;2.88;1.83;;;2.70;99.90;;;;;;5028060;28;20116;-82
2023/01/28 05:13:39;;;;;;;3.78;2.30;;;2.70;99.90;;;;;;5064617;28;20091;-82
2023/01/28 05:16:05;;;;;;;5.22;2.78;;;2.70;99.90;;;;;;5045937;28;20040;-82
2023/01/28 05:18:30;;;;;;;3.22;1.83;;;2.70;99.90;;;;;;5063747;28;20124;-82
2023/01/28 05:20:56;;;;;;;3.53;2.05;;;2.60;99.90;;;;;;5013319;28;20128;-82
2023/01/28 05:23:22;;;;;;;2.33;1.40;;;2.60;99.90;;;;;;5042653;28;20116;-82
2023/01/28 05:25:48;;;;;;;4.05;2.17;;;2.60;99.90;;;;;;5012422;28;20460;-82
2023/01/28 05:28:14;;;;;;;3.55;1.95;;;2.60;99.90;;;;;;5029341;28;20664;-82
2023/01/28 05:30:40;;;;;;;4.40;1.75;;;2.60;99.90;;;;;;5028334;28;20034;-82
2023/01/28 05:33:05;;;;;;;2.13;1.58;;;2.60;99.90;;;;;;5028149;28;20099;-82
2023/01/28 05:35:31;;;;;;;2.92;1.63;;;2.60;99.90;;;;;;5022767;28;20037;-82
2023/01/28 05:37:56;;;;;;;2.97;1.55;;;2.60;99.90;;;;;;5045670;28;20712;-82
2023/01/28 05:40:22;;;;;;;2.38;1.75;;;2.60;99.90;;;;;;5028529;28;20041;-82
2023/01/28 05:42:48;;;;;;;3.08;1.50;;;2.50;99.90;;;;;;5030319;28;20044;-81
2023/01/28 05:45:13;;;;;;;2.42;1.55;;;2.40;99.90;;;;;;5027834;28;20156;-82
2023/01/28 05:47:39;;;;;;;2.63;1.70;;;2.40;99.90;;;;;;5013251;28;20171;-82
2023/01/28 05:50:06;;;;;;;3.47;2.03;;;2.40;99.90;;;;;;5009991;28;20475;-81
2023/01/28 05:52:32;;;;;;;3.08;2.00;;;2.40;99.90;;;;;;5028912;28;20034;-82
2023/01/28 05:54:57;;;;;;;3.63;1.90;;;2.40;99.90;;;;;;5013081;28;20052;-82
2023/01/28 05:57:23;;;;;;;2.95;2.17;;;2.40;99.90;;;;;;5029232;28;20037;-82
2023/01/28 05:59:49;;;;;;;3.10;1.73;;;2.50;99.90;;;;;;5012711;28;20045;-82
2023/01/28 06:02:14;;;;;;;4.47;1.80;;;2.50;99.90;;;;;;5062908;28;20037;-82
2023/01/28 06:04:40;;;;;;;2.85;1.77;;;2.50;99.90;;;;;;5011608;28;20043;-82
2023/01/28 06:07:06;;;;;;;3.90;1.80;;;2.40;99.90;;;;;;5009337;28;20053;-82
2023/01/28 06:09:31;;;;;;;2.90;1.48;;;2.50;99.90;;;;;;5009993;28;20042;-82
2023/01/28 06:11:57;;;;;;;3.72;1.67;;;2.40;99.90;;;;;;5029800;28;20033;-82
2023/01/28 06:14:22;;;;;;;2.90;1.90;;;2.40;99.90;;;;;;5012287;28;20034;-82
2023/01/28 06:16:49;;;;;;;4.50;1.75;;;2.40;99.90;;;;;;5027523;28;20039;-82
2023/01/28 06:19:14;;;;;;;2.92;1.80;;;2.40;99.90;;;;;;5026792;28;20491;-82
2023/01/28 06:21:42;;;;;;;3.13;1.75;;;2.40;99.90;;;;;;4993164;28;20033;-82
2023/01/28 06:24:08;;;;;;;2.72;1.52;;;2.40;99.90;;;;;;5010158;28;20565;-82
2023/01/28 06:26:33;;;;;;;3.17;1.58;;;2.40;99.90;;;;;;5012428;28;20049;-81
2023/01/28 06:28:59;;;;;;;3.45;1.85;;;2.30;99.90;;;;;;5010801;28;21582;-82
2023/01/28 06:31:24;;;;;;;2.72;1.38;;;2.30;99.90;;;;;;5010475;28;20037;-81
2023/01/28 06:33:50;;;;;;;4.15;2.00;;;2.30;99.90;;;;;;5043564;28;20323;-82
2023/01/28 06:36:15;;;;;;;5.30;2.47;;;2.30;99.90;;;;;;5011301;28;20041;-82
2023/01/28 06:38:41;;;;;;;2.95;1.88;;;2.30;99.90;;;;;;5028186;28;20124;-82
2023/01/28 06:41:07;;;;;;;2.95;1.48;;;2.30;99.90;;;;;;5061694;28;20083;-82
2023/01/28 06:43:32;;;;;;;4.80;1.95;;;2.30;99.90;;;;;;5028527;28;20077;-82
2023/01/28 06:45:58;;;;;;;2.40;1.50;;;2.30;99.90;;;;;;5012079;28;20064;-81
2023/01/28 06:48:24;;;;;;;2.15;1.55;;;2.30;99.90;;;;;;5009928;28;20487;-82
2023/01/28 06:50:50;;;;;;;3.28;2.08;;;2.30;99.90;;;;;;5015466;28;20468;-82
2023/01/28 06:53:16;;;;;;;4.63;1.42;;;2.30;99.90;;;;;;5021959;28;20079;-81
2023/01/28 06:55:42;;;;;;;3.83;1.40;;;2.30;99.90;;;;;;5060808;28;20068;-82
2023/01/28 06:58:08;;;;;;;3.90;1.92;;;2.30;99.90;;;;;;5061791;28;20072;-82
2023/01/28 07:00:34;;;;;;;3.80;1.98;;;2.30;99.90;;;;;;5059818;28;20133;-82
2023/01/28 07:02:59;;;;;;;3.90;1.90;;;2.30;99.90;;;;;;5011919;28;20536;-82
2023/01/28 07:05:25;;;;;;;2.65;1.92;;;2.30;99.90;;;;;;5012521;28;20053;-82
2023/01/28 07:07:51;;;;;;;3.17;1.73;;;2.30;99.90;;;;;;5024176;28;20092;-81
2023/01/28 07:10:17;;;;;;;3.55;1.58;;;2.30;99.90;;;;;;5044392;28;20037;-82
2023/01/28 07:12:43;;;;;;;2.78;1.63;;;2.30;99.90;;;;;;5028467;28;20045;-82
2023/01/28 07:15:09;;;;;;;2.90;2.08;;;2.30;99.90;;;;;;5015212;28;20564;-81
2023/01/28 07:17:39;;;;;;;3.28;1.77;;;2.30;99.90;;;;;;5028478;28;20145;-81
2023/01/28 07:20:05;;;;;;;3.92;2.03;;;2.30;99.90;;;;;;5012146;28;20091;-81
2023/01/28 07:22:31;;;;;;;3.30;1.95;;;2.30;99.90;;;;;;5038382;28;20384;-82
2023/01/28 07:24:57;;;;;;;3.15;2.05;;;2.30;99.90;;;;;;5002632;28;20100;-81
2023/01/28 07:27:23;;;;;;;3.33;1.75;;;2.30;99.90;;;;;;5012297;28;20041;-81
2023/01/28 07:29:49;;;;;;;5.10;2.25;;;2.20;99.90;;;;;;5008373;28;20518;-81
2023/01/28 07:32:14;;;;;;;3.42;1.77;;;2.20;99.90;;;;;;5011475;28;20053;-82
2023/01/28 07:34:41;;;;;;;2.90;1.83;;;2.20;99.90;;;;;;5028406;28;20040;-82
2023/01/28 07:37:08;;;;;;;4.22;2.65;;;2.20;99.90;;;;;;5025219;28;20102;-81
2023/01/28 07:39:33;;;;;;;5.05;2.63;;;2.20;99.90;;;;;;5004393;28;20033;-81
2023/01/28 07:41:59;;;;;;;4.30;2.42;;;2.20;99.90;;;;;;5023590;28;20045;-82
2023/01/28 07:44:25;;;;;;;5.43;3.35;;;2.20;99.90;;;;;;5034141;28;20036;-82
2023/01/28 07:46:51;;;;;;;4.63;2.20;;;2.20;99.90;;;;;;5021986;28;20049;-82
2023/01/28 07:49:16;;;;;;;5.05;3.00;;;2.20;99.90;;;;;;5018661;28;20038;-81
2023/01/28 07:51:45;;;;;;;3.83;2.17;;;2.20;99.90;;;;;;5022480;28;20490;-81
2023/01/28 07:54:10;;;;;;;5.57;2.55;;;2.20;99.90;;;;;;5049471;28;20034;-81
2023/01/28 07:56:36;;;;;;;4.18;2.25;;;2.20;99.90;;;;;;5017390;28;20045;-82
2023/01/28 07:59:02;;;;;;;4.25;2.35;;;2.20;99.90;;;;;;5022162;28;20485;-82
2023/01/28 08:01:27;;;;;;;4.60;2.50;;;2.10;99.90;;;;;;5002338;28;20423;-81
2023/01/28 08:03:53;;;;;;;4.63;2.45;;;2.10;99.90;;;;;;5000907;28;21097;-81
2023/01/28 08:06:18;;;;;;;4.28;2.63;;;2.10;99.90;;;;;;5022409;28;20128;-81
2023/01/28 08:08:46;;;;;;;4.55;2.80;;;2.00;99.90;;;;;;5004491;28;20422;-82
2023/01/28 08:11:12;;;;;;;3.97;2.13;;;2.00;99.90;;;;;;5023309;28;20537;-81
2023/01/28 08:13:37;;;;;;;5.00;2.63;;;2.00;99.90;;;;;;5009490;28;20033;-82
2023/01/28 08:16:03;;;;;;;4.60;2.65;;;2.00;99.90;;;;;;5014426;28;20064;-81
2023/01/28 08:18:29;;;;;;;4.00;2.35;;;1.90;99.90;;;;;;5027559;28;20041;-82
2023/01/28 08:20:58;;;;;;;3.92;2.28;;;1.90;99.90;;;;;;5007970;28;21951;-81
2023/01/28 08:23:29;;;;;;;3.28;1.98;;;1.90;99.90;;;;;;5055247;28;20192;-81
2023/01/28 08:25:57;;;;;;;6.82;2.65;;;1.90;99.90;;;;;;5055585;28;20056;-81
2023/01/28 08:28:23;;;;;;;4.68;2.72;;;1.90;99.90;;;;;;5023521;28;20033;-81
2023/01/28 08:30:48;;;;;;;3.15;1.83;;;1.90;99.90;;;;;;5027048;28;20647;-81
2023/01/28 08:33:15;;;;;;;4.50;2.13;;;1.90;99.90;;;;;;5029250;28;20061;-81
2023/01/28 08:35:41;;;;;;;2.90;2.10;;;1.90;99.90;;;;;;5008640;28;20030;-82
2023/01/28 08:38:08;;;;;;;3.95;2.10;;;1.90;99.90;;;;;;5039022;28;20047;-82
2023/01/28 08:40:34;;;;;;;4.47;2.35;;;1.90;99.90;;;;;;5007467;28;20048;-83
2023/01/28 08:42:59;;;;;;;3.80;1.95;;;2.00;99.90;;;;;;5023590;28;20041;-82
2023/01/28 08:45:27;;;;;;;4.57;2.53;;;2.00;99.90;;;;;;5022819;28;20079;-82
2023/01/28 08:48:01;;;;;;;6.72;2.30;;;2.00;99.90;;;;;;5008536;28;20045;-82
2023/01/28 08:50:31;;;;;;;4.10;2.55;;;2.00;99.90;;;;;;5026792;28;20068;-82
2023/01/28 08:53:04;;;;;;;3.83;2.25;;;2.10;99.90;;;;;;5015029;28;20033;-82
2023/01/28 08:55:29;;;;;;;4.43;2.45;;;2.20;99.90;;;;;;5014248;28;20037;-82
2023/01/28 08:57:55;;;;;;;5.40;2.70;;;2.20;99.90;;;;;;5029585;28;20398;-82
2023/01/28 09:00:22;;;;;;;4.82;2.55;;;2.30;99.90;;;;;;5013514;28;20037;-82
2023/01/28 09:02:51;;;;;;;4.53;2.50;;;2.30;99.90;;;;;;5013106;28;20029;-81
2023/01/28 09:05:18;;;;;;;3.95;2.30;;;2.30;99.90;;;;;;5013776;28;20076;-82
2023/01/28 09:07:43;;;;;;;4.28;2.08;;;2.30;99.90;;;;;;5030923;28;20084;-82
2023/01/28 09:10:09;;;;;;;4.22;2.58;;;2.20;99.90;;;;;;5063575;28;20077;-82
2023/01/28 09:12:35;;;;;;;5.35;2.20;;;2.20;99.90;;;;;;5014618;28;20037;-82
2023/01/28 09:15:02;;;;;;;3.30;2.10;;;2.30;99.90;;;;;;5014323;28;20033;-82
2023/01/28 09:17:28;;;;;;;3.55;1.75;;;2.30;99.90;;;;;;5061206;28;20041;-82
2023/01/28 09:19:53;;;;;;;4.80;2.15;;;2.30;99.90;;;;;;5012358;28;20032;-81
2023/01/28 09:22:19;;;;;;;3.53;2.28;;;2.40;99.90;;;;;;5014518;28;20582;-82
2023/01/28 09:24:44;;;;;;;5.68;2.83;;;2.50;99.90;;;;;;5027244;28;20083;-82
2023/01/28 09:27:10;;;;;;;4.15;2.20;;;2.50;99.90;;;;;;5011023;28;20128;-82
2023/01/28 09:29:36;;;;;;;4.72;2.33;;;2.50;99.90;;;;;;5027084;28;20077;-82
2023/01/28 09:32:03;;;;;;;3.45;1.83;;;2.50;99.90;;;;;;5013882;28;20034;-82
2023/01/28 09:34:29;;;;;;;3.58;1.90;;;2.50;99.90;;;;;;5047232;28;20617;-82
2023/01/28 09:36:54;;;;;;;4.35;1.73;;;2.50;99.90;;;;;;5013677;28;20371;-82
2023/01/28 09:39:20;;;;;;;4.28;2.05;;;2.50;99.90;;;;;;5030778;28;20703;-82
2023/01/28 09:42:01;;;;;;;2.88;1.60;;;2.50;99.90;;;;;;5013429;28;20052;-82
2023/01/28 09:44:45;;;;;;;4.70;2.10;;;2.50;99.90;;;;;;5013620;28;20495;-82
2023/01/28 09:47:22;;;;;;;3.00;1.48;;;2.50;99.90;;;;;;5012343;28;20053;-82
2023/01/28 09:49:51;;;;;;;5.35;1.73;;;2.50;99.90;;;;;;5012939;28;20091;-81
2023/01/28 09:52:20;;;;;;;3.47;2.05;;;2.60;99.90;;;;;;5030288;28;20041;-82
2023/01/28 09:54:54;;;;;;;3.10;1.90;;;2.60;99.90;;;;;;5013358;28;20044;-82
2023/01/28 09:57:30;;;;;;;3.92;2.17;;;2.60;99.90;;;;;;5013563;28;20041;-82
2023/01/28 09:59:57;;;;;;;3.88;1.73;;;2.60;99.90;;;;;;5012694;28;20495;-82
2023/01/28 10:02:39;;;;;;;3.55;1.65;;;2.60;99.90;;;;;;5030195;28;20509;-82
2023/01/28 10:05:33;;;;;;;2.28;1.42;;;2.70;99.90;;;;;;5012062;28;20041;-82
2023/01/28 10:08:04;;;;;;;2.55;1.42;;;2.70;99.90;;;;;;5029617;28;20061;-82
2023/01/28 10:10:47;;;;;;;3.25;1.75;;;2.70;99.90;;;;;;5010722;28;20053;-82
2023/01/28 10:13:36;;;;;;;4.03;1.90;;;2.70;99.90;;;;;;5012560;28;20153;-82
2023/01/28 10:16:28;;;;;;;2.33;1.38;;;2.80;99.90;;;;;;5012535;28;20048;-82
2023/01/28 10:19:03;;;;;;;2.85;1.35;;;2.80;99.90;;;;;;5061340;28;20072;-82
2023/01/28 10:21:42;;;;;;;2.60;1.50;;;2.90;99.90;;;;;;5029568;28;20056;-82
2023/01/28 10:24:17;;;;;;;4.30;1.40;;;2.90;99.90;;;;;;5010477;28;20903;-82
2023/01/28 10:26:44;;;;;;;1.85;1.17;;;2.90;99.90;;;;;;4992530;28;20045;-82
2023/01/28 10:29:24;;;;;;;3.47;1.85;;;2.90;99.90;;;;;;5009450;28;20050;-82
2023/01/28 10:31:52;;;;;;;3.30;1.23;;;3.00;99.90;;;;;;5005338;28;20219;-82
2023/01/28 10:34:19;;;;;;;2.70;1.23;;;3.10;99.90;;;;;;5003558;28;20079;-82
2023/01/28 10:36:47;;;;;;;2.80;1.20;;;3.10;99.90;;;;;;5002704;28;20037;-81
2023/01/28 10:39:18;;;;;;;3.13;1.33;;;3.20;99.90;;;;;;5023887;28;20045;-82
2023/01/28 10:41:43;;;;;;;2.03;1.35;;;3.30;99.90;;;;;;5021577;28;20134;-81
2023/01/28 10:44:20;;;;;;;4.88;1.65;;;3.30;99.90;;;;;;5041187;28;20049;-81
2023/01/28 10:46:49;;;;;;;3.13;1.58;;;3.50;99.90;;;;;;5056144;28;20041;-82
2023/01/28 10:49:21;;;;;;;3.10;1.75;;;3.50;99.90;;;;;;5009234;28;20045;-81
2023/01/28 10:51:47;;;;;;;2.95;1.25;;;3.50;99.90;;;;;;5019080;28;20553;-81
2023/01/28 10:54:22;;;;;;;4.80;2.17;;;3.50;99.90;;;;;;5007115;28;20049;-81
2023/01/28 10:56:50;;;;;;;1.98;1.33;;;3.50;99.90;;;;;;5022308;28;20064;-82
2023/01/28 10:59:31;;;;;;;3.50;1.35;;;3.40;99.90;;;;;;5054722;28;20559;-81
2023/01/28 11:02:02;;;;;;;3.90;1.88;;;3.40;99.90;;;;;;5023267;28;20045;-81
2023/01/28 11:04:30;;;;;;;3.58;1.55;;;3.40;99.90;;;;;;5023827;28;20614;-81
2023/01/28 11:07:00;;;;;;;2.97;1.45;;;3.40;99.90;;;;;;5006353;28;20440;-81
2023/01/28 11:09:36;;;;;;;4.22;1.58;;;3.40;99.90;;;;;;5008073;28;20080;-81
2023/01/28 11:12:36;;;;;;;3.60;1.55;;;3.40;99.90;;;;;;5007794;28;20132;-81
2023/01/28 11:15:04;;;;;;;3.65;1.90;;;3.40;99.90;;;;;;5001332;28;20526;-81
2023/01/28 11:17:34;;;;;;;3.10;1.30;;;3.30;99.90;;;;;;5049289;28;20047;-81
2023/01/28 11:20:16;;;;;;;2.60;1.42;;;3.40;99.90;;;;;;5004905;28;20072;-81
2023/01/28 11:22:43;;;;;;;3.85;1.85;;;3.30;99.90;;;;;;5056058;28;20052;-81
2023/01/28 11:25:31;;;;;;;6.07;2.15;;;3.40;99.90;;;;;;5037431;28;20056;-81
2023/01/28 11:27:58;;;;;;;3.80;1.90;;;3.40;99.90;;;;;;5023433;28;20038;-80
2023/01/28 11:30:37;;;;;;;4.80;1.73;;;3.40;99.90;;;;;;5022601;28;20453;-81
2023/01/28 11:33:17;;;;;;;3.50;1.60;;;3.50;99.90;;;;;;5023865;28;20029;-81
2023/01/28 11:35:53;;;;;;;3.55;1.95;;;3.60;99.90;;;;;;5021874;28;20573;-81
2023/01/28 11:38:21;;;;;;;2.83;1.35;;;3.60;99.90;;;;;;5006630;28;20384;-81
2023/01/28 11:40:52;;;;;;;2.53;1.38;;;3.70;99.90;;;;;;5022172;28;20034;-81
2023/01/28 11:43:25;;;;;;;3.50;1.58;;;3.70;99.90;;;;;;5054486;28;20069;-81
2023/01/28 11:46:12;;;;;;;3.50;1.45;;;3.80;99.90;;;;;;5055415;28;20132;-81
2023/01/28 11:48:54;;;;;;;5.13;2.20;;;3.80;99.90;;;;;;5004701;28;20514;-81
2023/01/28 11:51:38;;;;;;;2.95;1.40;;;3.80;99.90;;;;;;5020528;28;20048;-81
2023/01/28 11:54:31;;;;;;;4.43;2.00;;;3.90;99.90;;;;;;5019533;28;20037;-81
2023/01/28 11:57:05;;;;;;;3.10;1.67;;;3.90;99.90;;;;;;5025904;28;20065;-81
2023/01/28 11:59:34;;;;;;;4.65;1.80;;;3.90;99.90;;;;;;5023048;28;20095;-81
2023/01/28 12:02:08;;;;;;;2.75;1.20;;;3.90;99.90;;;;;;5020059;28;20349;-81
2023/01/28 12:05:14;;;;;;;3.42;1.55;;;3.90;99.90;;;;;;5018969;28;20083;-81
2023/01/28 12:08:00;;;;;;;3.38;1.25;;;3.90;99.90;;;;;;5007071;28;20049;-82
2023/01/28 12:10:32;;;;;;;2.88;1.38;;;3.90;99.90;;;;;;5009649;28;20049;-81
2023/01/28 12:13:17;;;;;;;2.53;1.40;;;4.00;99.90;;;;;;5023925;28;20042;-81
2023/01/28 12:16:00;;;;;;;3.03;1.65;;;4.00;99.90;;;;;;5023568;28;20064;-81
2023/01/28 12:18:57;;;;;;;4.05;1.80;;;4.00;99.90;;;;;;5006588;28;20149;-81
2023/01/28 12:21:35;;;;;;;2.97;1.50;;;4.00;99.90;;;;;;5025062;28;20715;-82
2023/01/28 12:24:13;;;;;;;3.15;1.58;;;4.10;99.90;;;;;;5006496;28;20044;-81
2023/01/28 12:27:03;;;;;;;3.47;1.95;;;4.10;99.90;;;;;;5018864;28;20085;-81
2023/01/28 12:29:46;;;;;;;3.83;1.90;;;4.20;99.90;;;;;;5019493;28;20091;-82
2023/01/28 12:32:39;;;;;;;3.60;1.65;;;4.20;99.90;;;;;;5055784;28;20048;-82
2023/01/28 12:35:24;;;;;;;4.15;2.30;;;4.20;99.90;;;;;;5043296;28;20033;-82
2023/01/28 12:38:06;;;;;;;3.83;1.80;;;4.20;99.90;;;;;;5010104;28;20044;-83
2023/01/28 12:40:41;;;;;;;3.55;1.80;;;4.20;99.90;;;;;;5009390;28;20064;-82
2023/01/28 12:43:31;;;;;;;5.10;1.83;;;4.20;99.90;;;;;;5021352;28;20124;-81
2023/01/28 12:46:02;;;;;;;3.17;1.23;;;4.20;99.90;;;;;;5051638;28;20037;-82
2023/01/28 12:48:34;;;;;;;2.97;1.48;;;4.20;99.90;;;;;;5008314;28;20033;-81
2023/01/28 12:51:09;;;;;;;5.45;2.03;;;4.10;99.90;;;;;;5036670;28;20125;-81
2023/01/28 12:53:53;;;;;;;3.25;1.73;;;4.10;99.90;;;;;;5020675;28;20042;-82
2023/01/28 12:56:33;;;;;;;4.90;2.28;;;4.00;99.90;;;;;;5025529;28;20098;-81
2023/01/28 12:59:24;;;;;;;7.22;1.80;;;4.00;99.90;;;;;;5013667;28;20049;-82
2023/01/28 13:02:11;;;;;;;7.53;2.78;;;4.00;99.90;;;;;;5022537;28;20040;-81
2023/01/28 13:04:49;;;;;;;5.03;1.92;;;4.00;99.90;;;;;;5013388;28;20041;-81
2023/01/28 13:07:44;;;;;;;6.57;2.35;;;4.00;99.90;;;;;;5039812;28;20053;-81
2023/01/28 13:10:18;;;;;;;5.50;2.08;;;4.10;99.90;;;;;;5011902;28;20418;-81
2023/01/28 13:12:45;;;;;;;5.55;2.50;;;4.10;99.90;;;;;;5027107;28;20048;-82
2023/01/28 13:15:13;;;;;;;7.18;2.67;;;4.10;99.90;;;;;;5023477;28;20123;-84
2023/01/28 13:17:52;;;;;;;6.75;2.53;;;4.20;99.90;;;;;;5058696;28;20056;-84
2023/01/28 13:20:35;;;;;;;5.13;2.15;;;4.20;99.90;;;;;;5026123;28;20045;-86
2023/01/28 13:23:05;;;;;;;6.25;2.53;;;4.20;99.90;;;;;;5024144;28;20041;-81
2023/01/28 13:25:33;;;;;;;8.20;2.83;;;4.20;99.90;;;;;;5020983;28;20045;-82
2023/01/28 13:28:23;;;;;;;6.35;2.83;;;4.30;99.90;;;;;;5008813;28;20187;-82
2023/01/28 13:30:49;;;;;;;4.75;2.20;;;4.30;99.90;;;;;;5023138;28;20628;-81
2023/01/28 13:33:41;;;;;;;6.57;2.65;;;4.40;99.90;;;;;;5009261;28;20060;-82
2023/01/28 13:36:28;;;;;;;4.18;2.35;;;4.40;99.90;;;;;;5004829;28;20075;-82
2023/01/28 13:39:11;;;;;;;4.18;2.10;;;4.50;99.90;;;;;;5006829;28;20052;-82
2023/01/28 13:41:41;;;;;;;3.90;1.95;;;4.50;99.90;;;;;;5020683;28;20045;-82
2023/01/28 13:44:27;;;;;;;4.65;2.17;;;4.50;99.90;;;;;;5007643;28;20092;-82
2023/01/28 13:46:55;;;;;;;3.65;2.05;;;4.40;99.90;;;;;;5007129;28;20072;-82